createdAt,value
2024-05-09T00:00:44.822Z,98.41
2024-05-09T00:01:44.705Z,98.51
2024-05-09T00:02:44.698Z,98.55
2024-05-09T00:03:44.906Z,98.55
2024-05-09T00:04:44.727Z,98.66
2024-05-09T00:05:44.901Z,98.55
2024-05-09T00:06:44.636Z,98.35
2024-05-09T00:07:44.658Z,98.25
2024-05-09T00:08:44.649Z,97.83
2024-05-09T00:09:44.613Z,97.94
2024-05-09T00:10:44.667Z,98.04
2024-05-09T00:11:44.621Z,98.04
2024-05-09T00:12:44.581Z,97.94
2024-05-09T00:13:44.618Z,97.94
2024-05-09T00:14:44.545Z,97.67
2024-05-09T00:15:44.541Z,97.57
2024-05-09T00:16:44.597Z,97.88
2024-05-09T00:17:44.922Z,98.08
2024-05-09T00:18:44.675Z,98.19
2024-05-09T00:19:44.561Z,97.99
2024-05-09T00:20:44.513Z,97.67
2024-05-09T00:21:44.466Z,97.57
2024-05-09T00:22:44.529Z,97.47
2024-05-09T00:23:44.500Z,97.27
2024-05-09T00:24:44.456Z,97.27
2024-05-09T00:25:44.777Z,97.27
2024-05-09T00:26:44.416Z,97.37
2024-05-09T00:27:44.429Z,97.27
2024-05-09T00:28:44.460Z,97.27
2024-05-09T00:29:44.386Z,97.16
2024-05-09T00:30:44.374Z,97.27
2024-05-09T00:31:44.379Z,97.27
2024-05-09T00:32:44.440Z,97.16
2024-05-09T00:33:44.578Z,96.95
2024-05-09T00:34:44.356Z,96.75
2024-05-09T00:35:44.414Z,96.95
2024-05-09T00:36:44.308Z,97.16
2024-05-09T00:37:44.352Z,97.06
2024-05-09T00:38:44.311Z,97.00
2024-05-09T00:39:44.308Z,97.20
2024-05-09T00:40:44.271Z,97.31
2024-05-09T00:41:44.302Z,97.41
2024-05-09T00:42:44.244Z,97.41
2024-05-09T00:43:44.288Z,97.52
2024-05-09T00:44:44.241Z,97.62
2024-05-09T00:45:44.439Z,97.72
2024-05-09T00:46:44.228Z,97.62
2024-05-09T00:47:44.354Z,97.00
2024-05-09T00:48:44.240Z,97.36
2024-05-09T00:49:44.327Z,97.66
2024-05-09T00:50:44.196Z,97.77
2024-05-09T00:51:44.155Z,97.97
2024-05-09T00:52:44.194Z,98.28
2024-05-09T00:53:44.152Z,98.59
2024-05-09T00:54:44.114Z,98.49
2024-05-09T00:55:44.249Z,98.59
2024-05-09T00:56:44.091Z,98.49
2024-05-09T00:57:44.081Z,97.81
2024-05-09T00:58:44.117Z,97.91
2024-05-09T00:59:44.080Z,98.33
2024-05-09T01:00:44.240Z,98.43
2024-05-09T01:01:44.369Z,98.84
2024-05-09T01:02:44.100Z,98.94
2024-05-09T01:03:45.262Z,99.15
2024-05-09T01:04:44.175Z,99.60
2024-05-09T01:05:44.279Z,99.40
2024-05-09T01:06:44.005Z,98.68
2024-05-09T01:07:44.023Z,98.58
2024-05-09T01:08:44.079Z,98.79
2024-05-09T01:09:43.957Z,99.19
2024-05-09T01:10:45.945Z,99.30
2024-05-09T01:11:44.042Z,99.40
2024-05-09T01:12:43.911Z,99.60
2024-05-09T01:13:43.995Z,99.76
2024-05-09T01:14:43.902Z,99.96
2024-05-09T01:15:43.900Z,99.96
2024-05-09T01:16:43.983Z,99.99
2024-05-09T01:17:44.107Z,99.99
2024-05-09T01:18:43.989Z,99.99
2024-05-09T01:19:43.901Z,99.99
2024-05-09T01:20:45.309Z,99.86
2024-05-09T01:21:43.851Z,99.14
2024-05-09T01:22:43.842Z,99.04
2024-05-09T01:23:43.844Z,99.24
2024-05-09T01:24:43.794Z,99.44
2024-05-09T01:25:43.994Z,99.44
2024-05-09T01:26:43.788Z,99.55
2024-05-09T01:27:43.764Z,99.86
2024-05-09T01:28:43.781Z,99.99
2024-05-09T01:29:44.928Z,99.99
2024-05-09T01:30:43.723Z,99.99
2024-05-09T01:31:43.773Z,99.99
2024-05-09T01:32:43.794Z,99.99
2024-05-09T01:33:43.813Z,99.99
2024-05-09T01:34:43.723Z,99.99
2024-05-09T01:35:43.723Z,99.99
2024-05-09T01:36:43.664Z,99.99
2024-05-09T01:37:43.675Z,99.99
2024-05-09T01:38:43.675Z,99.99
2024-05-09T01:39:43.632Z,99.99
2024-05-09T01:40:43.653Z,99.99
2024-05-09T01:41:43.616Z,99.99
2024-05-09T01:42:43.625Z,99.99
2024-05-09T01:43:43.606Z,99.99
2024-05-09T01:44:43.585Z,99.99
2024-05-09T01:45:43.567Z,99.99
2024-05-09T01:46:43.586Z,99.99
2024-05-09T01:47:43.749Z,99.99
2024-05-09T01:48:43.620Z,99.99
2024-05-09T01:49:43.774Z,99.99
2024-05-09T01:50:43.849Z,99.99
2024-05-09T01:51:43.497Z,99.99
2024-05-09T01:52:43.550Z,99.99
2024-05-09T01:53:43.542Z,99.99
2024-05-09T01:54:43.461Z,99.85
2024-05-09T01:55:43.622Z,99.64
2024-05-09T01:56:43.441Z,99.74
2024-05-09T01:57:43.439Z,99.99
2024-05-09T01:58:43.489Z,99.99
2024-05-09T01:59:43.415Z,99.99
2024-05-09T02:00:43.852Z,99.99
2024-05-09T02:01:56.213Z,99.99
2024-05-09T02:02:43.409Z,99.99
2024-05-09T02:03:43.521Z,99.99
2024-05-09T02:04:43.541Z,99.99
2024-05-09T02:05:43.474Z,99.99
2024-05-09T02:06:43.330Z,99.99
2024-05-09T02:07:43.361Z,99.99
2024-05-09T02:08:43.329Z,99.99
2024-05-09T02:09:43.317Z,99.99
2024-05-09T02:10:43.513Z,99.99
2024-05-09T02:11:43.358Z,99.99
2024-05-09T02:12:43.277Z,99.99
2024-05-09T02:13:43.296Z,99.74
2024-05-09T02:14:43.247Z,99.85
2024-05-09T02:15:43.262Z,99.54
2024-05-09T02:16:43.310Z,99.33
2024-05-09T02:17:43.327Z,99.33
2024-05-09T02:18:43.281Z,99.17
2024-05-09T02:19:43.245Z,98.97
2024-05-09T02:20:43.941Z,99.07
2024-05-09T02:21:43.172Z,99.58
2024-05-09T02:22:43.227Z,99.99
2024-05-09T02:23:43.203Z,99.99
2024-05-09T02:24:43.136Z,99.99
2024-05-09T02:25:43.162Z,99.99
2024-05-09T02:26:43.112Z,99.99
2024-05-09T02:27:43.105Z,99.99
2024-05-09T02:28:43.173Z,99.99
2024-05-09T02:29:43.096Z,99.99
2024-05-09T02:30:43.069Z,99.99
2024-05-09T02:31:43.236Z,99.99
2024-05-09T02:32:43.145Z,99.99
2024-05-09T02:33:43.202Z,99.99
2024-05-09T02:34:43.051Z,99.99
2024-05-09T02:35:43.948Z,99.99
2024-05-09T02:36:42.996Z,99.99
2024-05-09T02:37:43.078Z,99.99
2024-05-09T02:38:43.103Z,99.99
2024-05-09T02:39:42.975Z,99.99
2024-05-09T02:40:43.042Z,99.99
2024-05-09T02:41:42.949Z,99.17
2024-05-09T02:42:42.934Z,98.97
2024-05-09T02:43:43.011Z,98.97
2024-05-09T02:44:42.912Z,99.11
2024-05-09T02:45:42.901Z,99.43
2024-05-09T02:46:42.890Z,99.94
2024-05-09T02:47:43.114Z,99.94
2024-05-09T02:48:42.950Z,99.99
2024-05-09T02:49:43.022Z,99.99
2024-05-09T02:50:42.857Z,99.99
2024-05-09T02:51:42.863Z,99.99
2024-05-09T02:52:42.834Z,99.99
2024-05-09T02:53:42.841Z,99.99
2024-05-09T02:54:42.796Z,99.73
2024-05-09T02:55:43.358Z,99.99
2024-05-09T02:56:42.812Z,99.99
2024-05-09T02:57:42.783Z,99.99
2024-05-09T02:58:42.813Z,99.99
2024-05-09T02:59:42.761Z,99.99
2024-05-09T03:00:43.221Z,99.99
2024-05-09T03:01:42.850Z,99.99
2024-05-09T03:02:42.930Z,99.99
2024-05-09T03:03:43.040Z,99.99
2024-05-09T03:04:42.753Z,99.99
2024-05-09T03:05:42.976Z,99.99
2024-05-09T03:06:42.670Z,99.99
2024-05-09T03:07:42.671Z,99.99
2024-05-09T03:08:42.647Z,99.99
2024-05-09T03:09:42.637Z,99.99
2024-05-09T03:10:42.898Z,99.99
2024-05-09T03:11:42.666Z,99.88
2024-05-09T03:12:42.574Z,99.47
2024-05-09T03:13:42.592Z,99.47
2024-05-09T03:14:42.593Z,99.57
2024-05-09T03:15:42.907Z,99.78
2024-05-09T03:16:42.511Z,99.99
2024-05-09T03:17:42.632Z,99.88
2024-05-09T03:18:42.811Z,99.68
2024-05-09T03:19:42.528Z,99.57
2024-05-09T03:20:42.527Z,99.57
2024-05-09T03:21:42.458Z,99.47
2024-05-09T03:22:42.448Z,99.06
2024-05-09T03:23:42.472Z,98.96
2024-05-09T03:24:42.418Z,99.26
2024-05-09T03:25:42.401Z,99.57
2024-05-09T03:26:42.392Z,99.78
2024-05-09T03:27:42.397Z,99.88
2024-05-09T03:28:42.383Z,99.99
2024-05-09T03:29:42.364Z,99.99
2024-05-09T03:30:43.338Z,99.99
2024-05-09T03:31:42.367Z,99.57
2024-05-09T03:32:42.504Z,99.41
2024-05-09T03:33:42.663Z,99.52
2024-05-09T03:34:42.307Z,99.62
2024-05-09T03:35:42.351Z,99.31
2024-05-09T03:36:42.295Z,99.41
2024-05-09T03:37:42.267Z,99.31
2024-05-09T03:38:42.345Z,99.31
2024-05-09T03:39:42.256Z,99.62
2024-05-09T03:40:42.239Z,99.72
2024-05-09T03:41:42.274Z,99.41
2024-05-09T03:42:42.214Z,99.31
2024-05-09T03:43:42.210Z,99.00
2024-05-09T03:44:42.245Z,98.79
2024-05-09T03:45:42.196Z,98.58
2024-05-09T03:46:42.177Z,98.49
2024-05-09T03:47:42.511Z,98.28
2024-05-09T03:48:42.222Z,98.58
2024-05-09T03:49:42.169Z,98.58
2024-05-09T03:50:42.236Z,98.49
2024-05-09T03:51:42.118Z,98.49
2024-05-09T03:52:42.119Z,98.49
2024-05-09T03:53:42.127Z,98.38
2024-05-09T03:54:42.085Z,98.38
2024-05-09T03:55:42.090Z,98.49
2024-05-09T03:56:42.142Z,98.58
2024-05-09T03:57:42.057Z,98.69
2024-05-09T03:58:42.068Z,98.69
2024-05-09T03:59:42.047Z,98.79
2024-05-09T04:00:42.348Z,98.79
2024-05-09T04:01:42.199Z,98.90
2024-05-09T04:02:42.122Z,98.58
2024-05-09T04:03:42.159Z,98.49
2024-05-09T04:04:42.003Z,98.58
2024-05-09T04:05:43.146Z,98.38
2024-05-09T04:06:41.972Z,98.28
2024-05-09T04:07:41.938Z,98.18
2024-05-09T04:08:42.001Z,98.18
2024-05-09T04:09:41.915Z,98.18
2024-05-09T04:10:41.929Z,97.86
2024-05-09T04:11:42.017Z,97.76
2024-05-09T04:12:41.886Z,97.66
2024-05-09T04:13:41.885Z,97.86
2024-05-09T04:14:41.911Z,97.66
2024-05-09T04:15:41.849Z,97.45
2024-05-09T04:16:41.847Z,97.30
2024-05-09T04:17:41.974Z,97.30
2024-05-09T04:18:41.959Z,97.41
2024-05-09T04:19:41.848Z,97.51
2024-05-09T04:20:41.926Z,97.61
2024-05-09T04:21:41.788Z,97.61
2024-05-09T04:22:41.787Z,97.82
2024-05-09T04:23:41.926Z,97.82
2024-05-09T04:24:41.760Z,97.92
2024-05-09T04:25:41.748Z,98.13
2024-05-09T04:26:41.814Z,98.33
2024-05-09T04:27:41.751Z,98.65
2024-05-09T04:28:41.714Z,98.96
2024-05-09T04:29:41.699Z,99.37
2024-05-09T04:30:42.541Z,99.99
2024-05-09T04:31:41.684Z,99.99
2024-05-09T04:32:41.855Z,99.99
2024-05-09T04:33:41.769Z,99.99
2024-05-09T04:34:41.760Z,99.99
2024-05-09T04:35:41.656Z,99.99
2024-05-09T04:36:44.389Z,99.99
2024-05-09T04:37:41.609Z,99.99
2024-05-09T04:38:41.679Z,99.99
2024-05-09T04:39:41.591Z,99.99
2024-05-09T04:40:41.593Z,99.99
2024-05-09T04:41:41.564Z,99.99
2024-05-09T04:42:41.572Z,99.99
2024-05-09T04:43:41.550Z,99.99
2024-05-09T04:44:41.573Z,99.99
2024-05-09T04:45:41.565Z,99.99
2024-05-09T04:46:41.518Z,99.99
2024-05-09T04:47:41.722Z,99.99
2024-05-09T04:48:41.605Z,99.99
2024-05-09T04:49:41.549Z,99.99
2024-05-09T04:50:41.596Z,99.99
2024-05-09T04:51:41.458Z,99.99
2024-05-09T04:52:41.450Z,99.99
2024-05-09T04:53:41.540Z,99.99
2024-05-09T04:54:41.451Z,99.99
2024-05-09T04:55:41.422Z,99.99
2024-05-09T04:56:41.451Z,99.99
2024-05-09T04:57:41.403Z,99.99
2024-05-09T04:58:41.386Z,99.99
2024-05-09T04:59:41.415Z,99.99
2024-05-09T05:00:41.848Z,99.99
2024-05-09T05:01:41.346Z,99.99
2024-05-09T05:02:41.421Z,99.99
2024-05-09T05:03:41.474Z,99.99
2024-05-09T05:04:41.462Z,99.99
2024-05-09T05:05:41.750Z,99.99
2024-05-09T05:06:41.292Z,99.99
2024-05-09T05:07:41.288Z,99.99
2024-05-09T05:08:41.343Z,99.99
2024-05-09T05:09:41.258Z,99.99
2024-05-09T05:10:41.294Z,99.99
2024-05-09T05:11:41.321Z,99.99
2024-05-09T05:12:41.240Z,99.99
2024-05-09T05:13:41.760Z,99.99
2024-05-09T05:14:41.260Z,99.99
2024-05-09T05:15:41.190Z,99.99
2024-05-09T05:16:41.220Z,99.99
2024-05-09T05:17:41.363Z,99.99
2024-05-09T05:18:41.293Z,99.99
2024-05-09T05:19:41.422Z,99.99
2024-05-09T05:20:41.200Z,99.99
2024-05-09T05:21:41.133Z,99.99
2024-05-09T05:22:41.131Z,99.99
2024-05-09T05:23:41.286Z,99.99
2024-05-09T05:24:41.098Z,99.99
2024-05-09T05:25:41.091Z,99.99
2024-05-09T05:26:41.135Z,99.99
2024-05-09T05:27:41.086Z,99.99
2024-05-09T05:28:41.073Z,99.99
2024-05-09T05:29:41.110Z,99.99
2024-05-09T05:30:41.144Z,99.99
2024-05-09T05:31:41.044Z,99.99
2024-05-09T05:32:41.136Z,99.99
2024-05-09T05:33:41.154Z,99.99
2024-05-09T05:34:41.025Z,99.99
2024-05-09T05:35:41.031Z,99.99
2024-05-09T05:36:40.968Z,99.99
2024-05-09T05:37:40.965Z,99.99
2024-05-09T05:38:41.049Z,99.99
2024-05-09T05:39:40.944Z,99.99
2024-05-09T05:40:41.325Z,99.99
2024-05-09T05:41:40.946Z,99.99
2024-05-09T05:42:40.910Z,99.99
2024-05-09T05:43:40.902Z,99.99
2024-05-09T05:44:40.973Z,99.99
2024-05-09T05:45:40.874Z,99.99
2024-05-09T05:46:40.865Z,99.99
2024-05-09T05:47:41.074Z,99.99
2024-05-09T05:48:41.032Z,99.99
2024-05-09T05:49:40.995Z,99.99
2024-05-09T05:50:40.863Z,99.99
2024-05-09T05:51:40.818Z,99.99
2024-05-09T05:52:40.818Z,99.99
2024-05-09T05:53:40.940Z,99.99
2024-05-09T05:54:40.775Z,99.99
2024-05-09T05:55:40.858Z,99.99
2024-05-09T05:56:40.836Z,99.99
2024-05-09T05:57:40.751Z,99.99
2024-05-09T05:58:40.743Z,99.99
2024-05-09T05:59:40.837Z,99.99
2024-05-09T06:00:41.626Z,99.99
2024-05-09T06:01:40.699Z,99.99
2024-05-09T06:02:40.905Z,99.99
2024-05-09T06:03:40.926Z,99.99
2024-05-09T06:04:40.726Z,99.99
2024-05-09T06:05:41.216Z,99.99
2024-05-09T06:06:40.652Z,99.99
2024-05-09T06:07:40.637Z,99.99
2024-05-09T06:08:40.697Z,99.99
2024-05-09T06:09:40.655Z,99.99
2024-05-09T06:10:41.642Z,99.99
2024-05-09T06:11:40.703Z,99.99
2024-05-09T06:12:40.581Z,99.99
2024-05-09T06:13:40.567Z,99.99
2024-05-09T06:14:40.595Z,99.99
2024-05-09T06:15:40.926Z,99.99
2024-05-09T06:16:40.563Z,99.99
2024-05-09T06:17:40.652Z,99.99
2024-05-09T06:18:40.647Z,99.99
2024-05-09T06:19:40.558Z,99.99
2024-05-09T06:20:40.725Z,99.99
2024-05-09T06:21:40.515Z,99.99
2024-05-09T06:22:40.473Z,99.99
2024-05-09T06:23:40.579Z,99.99
2024-05-09T06:24:40.454Z,99.59
2024-05-09T06:25:40.449Z,99.38
2024-05-09T06:26:40.487Z,99.49
2024-05-09T06:27:40.443Z,99.03
2024-05-09T06:28:40.410Z,99.44
2024-05-09T06:29:40.501Z,99.65
2024-05-09T06:30:42.269Z,99.60
2024-05-09T06:31:40.378Z,99.29
2024-05-09T06:32:40.528Z,98.88
2024-05-09T06:33:40.611Z,97.40
2024-05-09T06:34:40.452Z,96.99
2024-05-09T06:35:40.813Z,95.46
2024-05-09T06:36:40.325Z,95.10
2024-05-09T06:37:40.323Z,95.92
2024-05-09T06:38:40.392Z,95.17
2024-05-09T06:39:40.290Z,94.92
2024-05-09T06:40:41.987Z,92.93
2024-05-09T06:41:40.352Z,91.25
2024-05-09T06:42:40.277Z,90.59
2024-05-09T06:43:40.247Z,89.12
2024-05-09T06:44:40.331Z,88.06
2024-05-09T06:45:40.386Z,87.41
2024-05-09T06:46:40.308Z,86.49
2024-05-09T06:47:40.473Z,84.82
2024-05-09T06:48:40.582Z,84.17
2024-05-09T06:49:40.220Z,82.90
2024-05-09T06:50:40.639Z,82.80
2024-05-09T06:51:40.154Z,82.35
2024-05-09T06:52:40.144Z,81.60
2024-05-09T06:53:40.297Z,79.80
2024-05-09T06:54:40.133Z,79.36
2024-05-09T06:55:40.140Z,77.59
2024-05-09T06:56:40.170Z,76.14
2024-05-09T06:57:43.006Z,75.29
2024-05-09T06:58:40.106Z,74.07
2024-05-09T06:59:40.116Z,73.63
2024-05-09T07:00:41.720Z,74.41
2024-05-09T07:01:40.093Z,73.36
2024-05-09T07:02:40.176Z,72.45
2024-05-09T07:03:40.111Z,70.69
2024-05-09T07:04:40.101Z,70.59
2024-05-09T07:05:40.060Z,70.36
2024-05-09T07:06:39.988Z,69.95
2024-05-09T07:07:39.981Z,69.41
2024-05-09T07:08:40.124Z,69.38
2024-05-09T07:09:39.954Z,68.06
2024-05-09T07:10:39.960Z,67.12
2024-05-09T07:11:39.995Z,67.35
2024-05-09T07:12:39.923Z,67.22
2024-05-09T07:13:39.916Z,67.52
2024-05-09T07:14:40.040Z,66.41
2024-05-09T07:15:39.928Z,66.41
2024-05-09T07:16:39.888Z,67.22
2024-05-09T07:17:39.952Z,67.02
2024-05-09T07:18:40.058Z,67.22
2024-05-09T07:19:39.923Z,67.02
2024-05-09T07:20:40.022Z,67.12
2024-05-09T07:21:39.842Z,67.12
2024-05-09T07:22:39.816Z,66.89
2024-05-09T07:23:40.149Z,66.28
2024-05-09T07:24:39.788Z,65.41
2024-05-09T07:25:39.818Z,65.38
2024-05-09T07:26:39.813Z,64.24
2024-05-09T07:27:39.767Z,63.43
2024-05-09T07:28:39.750Z,63.30
2024-05-09T07:29:39.775Z,63.84
2024-05-09T07:30:39.727Z,63.53
2024-05-09T07:31:39.731Z,63.53
2024-05-09T07:32:39.817Z,63.20
2024-05-09T07:33:39.806Z,62.70
2024-05-09T07:34:39.709Z,63.10
2024-05-09T07:35:39.860Z,64.01
2024-05-09T07:36:39.671Z,63.40
2024-05-09T07:37:39.652Z,62.19
2024-05-09T07:38:39.778Z,62.16
2024-05-09T07:39:39.635Z,63.37
2024-05-09T07:40:39.634Z,62.37
2024-05-09T07:41:39.733Z,62.57
2024-05-09T07:42:39.611Z,61.73
2024-05-09T07:43:39.589Z,61.63
2024-05-09T07:44:39.636Z,62.13
2024-05-09T07:45:48.961Z,61.33
2024-05-09T07:47:47.660Z,61.50
2024-05-09T07:51:02.851Z,60.77
2024-05-09T07:53:34.362Z,59.43
2024-05-09T07:53:50.774Z,57.02
2024-05-09T07:54:00.683Z,58.20
2024-05-09T07:54:57.243Z,57.09
2024-05-09T07:55:57.501Z,58.00
2024-05-09T07:56:57.403Z,55.86
2024-05-09T07:57:57.245Z,55.16
2024-05-09T07:58:57.143Z,55.88
2024-05-09T07:59:57.115Z,56.29
2024-05-09T08:00:57.185Z,55.35
2024-05-09T08:01:57.161Z,56.26
2024-05-09T08:02:57.102Z,55.63
2024-05-09T08:03:57.374Z,55.60
2024-05-09T08:04:57.178Z,56.21
2024-05-09T08:05:57.064Z,55.28
2024-05-09T08:06:57.106Z,56.58
2024-05-09T08:07:57.048Z,53.59
2024-05-09T08:08:59.152Z,54.43
2024-05-09T08:09:57.030Z,53.39
2024-05-09T08:10:56.988Z,54.80
2024-05-09T08:11:56.998Z,54.47
2024-05-09T08:12:56.979Z,52.67
2024-05-09T08:13:57.058Z,53.07
2024-05-09T08:14:57.155Z,51.56
2024-05-09T08:15:57.162Z,50.54
2024-05-09T08:16:56.995Z,52.24
2024-05-09T08:17:57.255Z,52.32
2024-05-09T08:18:57.110Z,53.02
2024-05-09T08:19:57.003Z,53.85
2024-05-09T08:20:57.103Z,53.80
2024-05-09T08:21:56.995Z,53.77
2024-05-09T08:22:56.893Z,54.55
2024-05-09T08:23:56.978Z,54.05
2024-05-09T08:24:56.890Z,53.34
2024-05-09T08:25:56.825Z,52.17
2024-05-09T08:26:56.810Z,52.29
2024-05-09T08:27:56.974Z,51.87
2024-05-09T08:28:56.781Z,53.59
2024-05-09T08:29:56.820Z,52.59
2024-05-09T08:30:56.913Z,51.89
2024-05-09T08:31:56.870Z,50.76
2024-05-09T08:32:56.857Z,53.95
2024-05-09T08:33:56.834Z,52.01
2024-05-09T08:34:56.882Z,46.91
2024-05-09T08:35:56.717Z,47.78
2024-05-09T08:36:59.650Z,47.06
2024-05-09T08:37:56.761Z,46.04
2024-05-09T08:38:56.683Z,47.04
2024-05-09T08:39:56.762Z,46.96
2024-05-09T08:40:56.830Z,47.31
2024-05-09T08:41:56.645Z,48.31
2024-05-09T08:42:56.784Z,47.41
2024-05-09T08:43:56.637Z,47.20
2024-05-09T08:44:56.610Z,46.93
2024-05-09T08:45:56.631Z,46.53
2024-05-09T08:46:56.633Z,45.83
2024-05-09T08:47:56.715Z,45.75
2024-05-09T08:48:56.788Z,45.34
2024-05-09T08:49:56.680Z,45.37
2024-05-09T08:50:56.629Z,45.59
2024-05-09T08:51:56.658Z,46.31
2024-05-09T08:52:56.536Z,48.44
2024-05-09T08:53:56.549Z,47.32
2024-05-09T08:54:56.561Z,46.92
2024-05-09T08:55:56.565Z,47.09
2024-05-09T08:56:56.524Z,46.29
2024-05-09T08:57:56.496Z,47.32
2024-05-09T08:58:56.488Z,47.32
2024-05-09T08:59:56.477Z,48.22
2024-05-09T09:00:56.538Z,48.63
2024-05-09T09:01:56.577Z,47.82
2024-05-09T09:02:56.490Z,47.82
2024-05-09T09:03:56.529Z,48.02
2024-05-09T09:04:56.481Z,49.43
2024-05-09T09:05:56.481Z,48.95
2024-05-09T09:06:58.144Z,48.25
2024-05-09T09:07:56.360Z,47.94
2024-05-09T09:08:56.499Z,48.43
2024-05-09T09:09:56.428Z,48.14
2024-05-09T09:10:56.375Z,49.98
2024-05-09T09:11:56.374Z,49.18
2024-05-09T09:12:56.388Z,49.13
2024-05-09T09:13:56.306Z,50.33
2024-05-09T09:14:56.302Z,50.61
2024-05-09T09:15:56.365Z,48.50
2024-05-09T09:16:56.264Z,48.70
2024-05-09T09:17:56.356Z,47.67
2024-05-09T09:18:56.406Z,46.37
2024-05-09T09:19:56.348Z,46.37
2024-05-09T09:20:56.231Z,46.72
2024-05-09T09:21:56.241Z,46.66
2024-05-09T09:22:56.280Z,47.34
2024-05-09T09:23:56.188Z,46.69
2024-05-09T09:24:56.226Z,47.17
2024-05-09T09:25:56.270Z,46.17
2024-05-09T09:26:56.156Z,45.75
2024-05-09T09:27:56.210Z,46.07
2024-05-09T09:28:56.155Z,46.97
2024-05-09T09:29:56.114Z,47.63
2024-05-09T09:30:56.164Z,46.91
2024-05-09T09:31:56.134Z,47.66
2024-05-09T09:32:56.160Z,47.81
2024-05-09T09:33:56.217Z,44.49
2024-05-09T09:34:56.279Z,42.07
2024-05-09T09:35:56.102Z,40.28
2024-05-09T09:36:56.102Z,41.30
2024-05-09T09:37:56.069Z,41.61
2024-05-09T09:38:56.123Z,40.91
2024-05-09T09:39:56.033Z,40.63
2024-05-09T09:40:56.153Z,42.66
2024-05-09T09:41:56.010Z,43.66
2024-05-09T09:42:56.040Z,44.98
2024-05-09T09:43:55.966Z,42.88
2024-05-09T09:45:04.210Z,42.16
2024-05-09T09:45:56.035Z,43.54
2024-05-09T09:46:55.991Z,43.04
2024-05-09T09:47:56.046Z,41.83
2024-05-09T09:48:56.031Z,40.71
2024-05-09T09:49:55.923Z,40.37
2024-05-09T09:50:55.901Z,39.64
2024-05-09T09:51:56.057Z,39.12
2024-05-09T09:52:55.893Z,39.90
2024-05-09T09:53:55.855Z,37.98
2024-05-09T09:54:55.921Z,35.31
2024-05-09T09:55:55.864Z,36.04
2024-05-09T09:56:55.851Z,37.12
2024-05-09T09:57:56.168Z,35.89
2024-05-09T09:58:55.846Z,36.37
2024-05-09T09:59:55.807Z,36.76
2024-05-09T10:00:55.907Z,36.34
2024-05-09T10:01:55.832Z,36.42
2024-05-09T10:02:55.791Z,36.92
2024-05-09T10:03:55.915Z,38.09
2024-05-09T10:04:55.863Z,36.19
2024-05-09T10:05:55.888Z,36.00
2024-05-09T10:06:55.767Z,34.43
2024-05-09T10:07:55.772Z,35.52
2024-05-09T10:08:55.745Z,36.21
2024-05-09T10:09:55.742Z,34.50
2024-05-09T10:10:55.799Z,32.31
2024-05-09T10:12:00.158Z,33.20
2024-05-09T10:12:55.702Z,34.71
2024-05-09T10:13:55.675Z,35.92
2024-05-09T10:14:55.671Z,34.92
2024-05-09T10:15:55.692Z,34.75
2024-05-09T10:16:55.653Z,36.49
2024-05-09T10:17:55.747Z,36.91
2024-05-09T10:18:55.763Z,38.10
2024-05-09T10:19:55.649Z,37.79
2024-05-09T10:20:55.665Z,37.47
2024-05-09T10:21:55.627Z,36.14
2024-05-09T10:22:55.585Z,35.33
2024-05-09T10:23:55.539Z,34.99
2024-05-09T10:24:55.552Z,33.90
2024-05-09T10:25:55.529Z,31.78
2024-05-09T10:26:55.526Z,31.50
2024-05-09T10:27:55.606Z,33.88
2024-05-09T10:28:55.504Z,33.97
2024-05-09T10:29:55.610Z,34.86
2024-05-09T10:30:55.563Z,35.64
2024-05-09T10:31:55.514Z,33.75
2024-05-09T10:32:55.487Z,33.24
2024-05-09T10:33:55.796Z,32.63
2024-05-09T10:34:55.527Z,32.91
2024-05-09T10:35:55.450Z,32.51
2024-05-09T10:36:55.813Z,34.40
2024-05-09T10:37:55.385Z,33.98
2024-05-09T10:38:55.383Z,32.89
2024-05-09T10:39:55.541Z,32.50
2024-05-09T10:40:55.356Z,31.02
2024-05-09T10:41:55.375Z,32.93
2024-05-09T10:42:55.379Z,33.06
2024-05-09T10:43:55.335Z,33.59
2024-05-09T10:44:55.328Z,34.52
2024-05-09T10:45:55.318Z,34.71
2024-05-09T10:46:55.368Z,34.59
2024-05-09T10:47:55.458Z,33.98
2024-05-09T10:48:55.446Z,34.15
2024-05-09T10:49:55.388Z,33.75
2024-05-09T10:50:55.261Z,34.86
2024-05-09T10:51:55.321Z,33.55
2024-05-09T10:52:55.299Z,33.75
2024-05-09T10:53:55.245Z,34.17
2024-05-09T10:54:55.240Z,33.70
2024-05-09T10:55:55.201Z,34.23
2024-05-09T10:56:55.190Z,35.06
2024-05-09T10:57:55.222Z,36.09
2024-05-09T10:58:55.173Z,36.80
2024-05-09T10:59:55.174Z,37.60
2024-05-09T11:00:55.345Z,36.52
2024-05-09T11:01:55.200Z,36.52
2024-05-09T11:02:55.220Z,37.70
2024-05-09T11:03:55.287Z,37.51
2024-05-09T11:04:55.166Z,38.92
2024-05-09T11:05:55.159Z,37.49
2024-05-09T11:06:55.179Z,36.85
2024-05-09T11:07:55.096Z,32.03
2024-05-09T11:08:55.090Z,31.21
2024-05-09T11:09:55.140Z,33.09
2024-05-09T11:10:55.170Z,33.29
2024-05-09T11:11:55.079Z,33.47
2024-05-09T11:12:55.129Z,32.86
2024-05-09T11:13:55.055Z,33.33
2024-05-09T11:14:55.027Z,32.75
2024-05-09T11:15:55.149Z,33.17
2024-05-09T11:16:55.015Z,32.86
2024-05-09T11:17:55.131Z,33.15
2024-05-09T11:18:55.359Z,32.89
2024-05-09T11:19:54.993Z,32.90
2024-05-09T11:20:54.952Z,33.87
2024-05-09T11:21:55.027Z,33.97
2024-05-09T11:22:54.914Z,34.10
2024-05-09T11:23:54.920Z,34.71
2024-05-09T11:24:54.992Z,32.93
2024-05-09T11:25:54.898Z,33.47
2024-05-09T11:26:54.925Z,33.56
2024-05-09T11:27:55.002Z,34.06
2024-05-09T11:28:54.854Z,35.24
2024-05-09T11:29:54.859Z,36.10
2024-05-09T11:30:54.919Z,33.57
2024-05-09T11:31:54.903Z,32.26
2024-05-09T11:32:54.882Z,32.84
2024-05-09T11:33:54.930Z,32.71
2024-05-09T11:34:54.804Z,30.90
2024-05-09T11:35:54.780Z,32.18
2024-05-09T11:36:54.831Z,31.39
2024-05-09T11:37:54.759Z,31.54
2024-05-09T11:38:54.783Z,31.17
2024-05-09T11:39:54.903Z,34.18
2024-05-09T11:40:54.806Z,33.11
2024-05-09T11:41:54.739Z,32.03
2024-05-09T11:42:54.786Z,32.92
2024-05-09T11:43:54.713Z,32.49
2024-05-09T11:44:54.680Z,32.48
2024-05-09T11:45:54.796Z,31.26
2024-05-09T11:46:54.659Z,29.64
2024-05-09T11:47:54.766Z,30.32
2024-05-09T11:48:54.783Z,31.49
2024-05-09T11:49:54.829Z,30.49
2024-05-09T11:50:54.630Z,29.60
2024-05-09T11:51:54.635Z,31.97
2024-05-09T11:52:54.606Z,30.98
2024-05-09T11:53:54.596Z,30.67
2024-05-09T11:54:54.714Z,29.68
2024-05-09T11:55:54.578Z,30.37
2024-05-09T11:56:54.560Z,28.96
2024-05-09T11:57:54.759Z,28.55
2024-05-09T11:58:54.554Z,29.23
2024-05-09T11:59:54.549Z,27.64
2024-05-09T12:00:54.600Z,27.33
2024-05-09T12:01:54.597Z,27.72
2024-05-09T12:02:54.533Z,28.03
2024-05-09T12:03:54.677Z,27.73
2024-05-09T12:04:54.604Z,28.82
2024-05-09T12:05:54.572Z,27.93
2024-05-09T12:06:54.477Z,28.12
2024-05-09T12:07:54.441Z,27.52
2024-05-09T12:08:54.470Z,25.95
2024-05-09T12:09:54.457Z,27.04
2024-05-09T12:10:54.617Z,27.64
2024-05-09T12:11:54.453Z,27.33
2024-05-09T12:12:54.432Z,27.03
2024-05-09T12:13:54.429Z,27.23
2024-05-09T12:14:54.427Z,26.24
2024-05-09T12:15:54.465Z,26.24
2024-05-09T12:16:54.395Z,25.83
2024-05-09T12:17:55.835Z,26.41
2024-05-09T12:18:54.424Z,25.84
2024-05-09T12:19:54.325Z,27.34
2024-05-09T12:20:54.350Z,27.72
2024-05-09T12:21:54.372Z,25.55
2024-05-09T12:22:54.298Z,26.24
2024-05-09T12:23:54.280Z,25.45
2024-05-09T12:24:54.454Z,25.39
2024-05-09T12:25:54.273Z,25.98
2024-05-09T12:26:54.259Z,25.49
2024-05-09T12:27:54.321Z,25.77
2024-05-09T12:28:54.238Z,25.27
2024-05-09T12:29:54.224Z,25.51
2024-05-09T12:30:54.228Z,27.79
2024-05-09T12:31:54.270Z,27.49
2024-05-09T12:32:54.245Z,26.48
2024-05-09T12:33:54.370Z,25.87
2024-05-09T12:34:54.165Z,27.47
2024-05-09T12:35:54.164Z,26.36
2024-05-09T12:36:54.197Z,26.86
2024-05-09T12:37:54.151Z,27.55
2024-05-09T12:38:54.146Z,27.53
2024-05-09T12:39:54.157Z,27.13
2024-05-09T12:40:54.498Z,27.11
2024-05-09T12:41:54.095Z,28.12
2024-05-09T12:42:54.167Z,27.73
2024-05-09T12:43:54.085Z,28.23
2024-05-09T12:44:54.082Z,27.51
2024-05-09T12:45:54.101Z,26.10
2024-05-09T12:46:54.038Z,27.08
2024-05-09T12:47:54.111Z,27.84
2024-05-09T12:48:54.426Z,24.48
2024-05-09T12:49:54.113Z,24.59
2024-05-09T12:50:54.055Z,23.61
2024-05-09T12:51:54.053Z,25.38
2024-05-09T12:52:53.979Z,25.79
2024-05-09T12:53:54.054Z,26.79
2024-05-09T12:54:54.247Z,26.82
2024-05-09T12:55:59.712Z,27.69